Time;durP1;ratioP1;P1;durP2;ratioP2;P2;SDS_P1;SDS_P2;PMS_P1;PMS_P2;Temp;Humidity;BMP_temperature;BMP_pressure;BME280_temperature;BME280_humidity;BME280_pressure;Samples;Min_cycle;Max_cycle;Signal;HPM_P1;HPM_P2
2024/01/26 00:02:08;;;;;;;;;12.00;12.00;;;;;12.04;91.33;102386.59;4993762;28;47030;-39
2024/01/26 00:04:33;;;;;;;;;13.33;13.33;;;;;12.11;91.27;102379.84;4992582;28;45450;-39
2024/01/26 00:06:59;;;;;;;;;18.00;11.00;;;;;12.16;90.85;102375.00;4993789;28;45396;-38
2024/01/26 00:09:24;;;;;;;;;13.67;11.00;;;;;12.12;91.04;102384.19;4993938;28;45415;-40
2024/01/26 00:11:50;;;;;;;;;12.33;9.67;;;;;12.09;91.64;102388.91;4993601;28;45405;-39
2024/01/26 00:14:15;;;;;;;;;7.00;7.00;;;;;12.09;91.22;102386.25;4993532;28;45485;-40
2024/01/26 00:16:40;;;;;;;;;13.33;7.67;;;;;12.17;91.24;102376.69;4993921;28;45337;-39
2024/01/26 00:19:06;;;;;;;;;9.67;9.00;;;;;12.20;90.91;102372.94;4994113;28;45310;-38
2024/01/26 00:21:32;;;;;;;;;10.00;8.67;;;;;12.21;91.13;102396.81;4993423;28;46143;-40
2024/01/26 00:23:58;;;;;;;;;13.33;9.00;;;;;12.22;91.36;102395.03;4993697;28;45476;-39
2024/01/26 00:26:23;;;;;;;;;14.00;10.00;;;;;12.23;90.64;102402.91;4993529;28;45262;-40
2024/01/26 00:28:48;;;;;;;;;12.33;8.00;;;;;12.24;90.46;102380.59;4993795;28;45297;-39
2024/01/26 00:31:18;;;;;;;;;10.00;8.00;;;;;12.30;91.11;102373.06;4993261;28;45304;-39
2024/01/26 00:33:44;;;;;;;;;9.33;7.00;;;;;12.32;90.77;102369.34;4993249;28;45505;-40
2024/01/26 00:36:11;;;;;;;;;7.00;7.00;;;;;12.34;90.36;102370.03;4993621;28;45427;-40
2024/01/26 00:38:36;;;;;;;;;10.00;10.00;;;;;12.35;90.44;102354.91;4993435;28;45285;-39
2024/01/26 00:41:02;;;;;;;;;9.00;9.00;;;;;12.35;90.20;102346.91;4993048;28;45348;-39
2024/01/26 00:43:27;;;;;;;;;6.33;6.00;;;;;12.30;90.01;102336.56;4993155;28;45338;-39
2024/01/26 00:45:53;;;;;;;;;15.67;12.00;;;;;12.26;90.38;102353.78;4993343;28;45459;-38
2024/01/26 00:48:20;;;;;;;;;15.33;9.00;;;;;12.20;91.01;102357.78;4993216;28;45443;-38
2024/01/26 00:50:46;;;;;;;;;13.67;12.00;;;;;12.23;91.07;102367.38;4992779;28;45398;-39
2024/01/26 00:53:12;;;;;;;;;13.67;9.67;;;;;12.27;91.13;102363.50;4992554;28;45449;-37
2024/01/26 00:55:37;;;;;;;;;13.33;9.00;;;;;12.24;90.96;102359.25;4992987;27;45376;-39
2024/01/26 00:58:03;;;;;;;;;15.67;12.67;;;;;12.31;90.95;102353.44;4993081;28;45479;-39
2024/01/26 01:00:29;;;;;;;;;13.00;11.67;;;;;12.35;90.60;102353.09;4992987;28;45436;-38
2024/01/26 01:02:54;;;;;;;;;16.33;11.67;;;;;12.36;91.02;102343.25;4992759;28;45317;-39
2024/01/26 01:05:20;;;;;;;;;12.67;9.33;;;;;12.35;90.57;102338.91;4994224;28;45379;-38
2024/01/26 01:07:46;;;;;;;;;18.67;15.33;;;;;12.30;90.73;102341.06;4996065;28;45354;-38
2024/01/26 01:10:11;;;;;;;;;8.33;8.33;;;;;12.40;90.26;102344.72;4995842;28;45467;-38
2024/01/26 01:12:43;;;;;;;;;13.00;10.33;;;;;12.37;90.33;102340.47;4995739;28;45296;-39
2024/01/26 01:15:12;;;;;;;;;13.00;11.67;;;;;12.40;90.75;102336.72;4996078;27;45322;-39
2024/01/26 01:17:43;;;;;;;;;15.00;11.67;;;;;12.41;90.58;102331.25;4996008;28;45441;-39
2024/01/26 01:20:10;;;;;;;;;14.67;12.00;;;;;12.43;90.23;102337.34;4995725;28;45472;-39
2024/01/26 01:22:37;;;;;;;;;16.67;12.67;;;;;12.41;90.33;102335.75;4995573;28;45396;-39
2024/01/26 01:25:06;;;;;;;;;20.67;12.33;;;;;12.34;90.96;102342.50;4995708;28;45419;-37
2024/01/26 01:27:32;;;;;;;;;19.67;14.67;;;;;12.42;91.11;102340.09;5081122;27;45420;-38
2024/01/26 01:29:57;;;;;;;;;14.33;9.67;;;;;12.20;91.03;102293.75;4995414;28;45340;-39
2024/01/26 01:32:23;;;;;;;;;22.00;14.00;;;;;12.43;90.40;102325.78;4995585;28;45395;-38
2024/01/26 01:34:48;;;;;;;;;15.00;14.00;;;;;12.41;91.04;102327.72;4995904;28;45332;-39
2024/01/26 01:37:13;;;;;;;;;13.33;13.00;;;;;12.43;90.76;102339.13;5010916;28;45965;-37
2024/01/26 01:39:39;;;;;;;;;16.67;15.00;;;;;12.43;91.42;102340.00;4994150;28;52447;-39
2024/01/26 01:42:04;;;;;;;;;24.33;16.00;;;;;12.41;91.26;102341.09;4995385;28;45426;-38
2024/01/26 01:44:30;;;;;;;;;20.00;13.67;;;;;12.42;90.97;102335.59;4995516;28;45464;-39
2024/01/26 01:46:56;;;;;;;;;16.00;13.00;;;;;12.45;91.48;102340.72;4995779;28;45316;-39
2024/01/26 01:49:22;;;;;;;;;18.67;12.00;;;;;12.45;91.28;102330.03;4995419;28;45491;-40
2024/01/26 01:51:52;;;;;;;;;14.67;10.00;;;;;12.45;91.51;102339.88;4995785;28;45322;-40
2024/01/26 01:54:18;;;;;;;;;15.67;13.00;;;;;12.49;91.11;102331.50;4995534;28;45317;-40
2024/01/26 01:56:44;;;;;;;;;17.00;14.00;;;;;12.44;90.97;102328.34;4995435;28;45412;-40
2024/01/26 01:59:09;;;;;;;;;14.67;12.33;;;;;12.55;90.44;102340.00;4995013;28;46068;-40
2024/01/26 02:01:35;;;;;;;;;14.33;12.67;;;;;12.54;90.60;102341.81;4994434;28;45432;-39
2024/01/26 02:04:02;;;;;;;;;17.33;12.33;;;;;12.54;91.15;102344.47;4995511;28;45317;-40
2024/01/26 02:06:28;;;;;;;;;10.33;8.33;;;;;12.54;90.79;102332.97;4995415;28;45321;-39
2024/01/26 02:08:53;;;;;;;;;17.33;13.67;;;;;12.53;90.37;102331.28;4994838;28;45390;-39
2024/01/26 02:11:19;;;;;;;;;15.67;10.67;;;;;12.48;90.79;102312.94;4995060;28;45366;-41
2024/01/26 02:13:44;;;;;;;;;15.33;13.33;;;;;12.47;90.81;102316.56;4995003;28;45396;-41
2024/01/26 02:16:09;;;;;;;;;15.33;13.67;;;;;12.52;91.02;102314.41;4994316;28;45190;-38
2024/01/26 02:18:35;;;;;;;;;13.33;12.67;;;;;12.49;90.20;102304.81;4994876;28;46327;-40
2024/01/26 02:21:00;;;;;;;;;16.00;13.67;;;;;12.39;90.76;102295.84;4994698;28;47605;-40
2024/01/26 02:23:26;;;;;;;;;14.00;9.67;;;;;12.49;91.07;102326.16;4995174;28;45322;-38
2024/01/26 02:25:51;;;;;;;;;14.33;12.00;;;;;12.51;90.81;102328.69;4995196;28;45348;-39
2024/01/26 02:28:17;;;;;;;;;10.67;9.67;;;;;12.52;90.43;102318.91;4994870;28;45447;-41
2024/01/26 02:30:42;;;;;;;;;16.33;10.33;;;;;12.55;90.69;102310.63;4994665;28;45330;-40
2024/01/26 02:33:07;;;;;;;;;14.67;14.67;;;;;12.57;90.20;102322.06;4995004;28;45380;-38
2024/01/26 02:35:33;;;;;;;;;13.33;9.33;;;;;12.56;90.13;102318.53;4994901;28;45304;-40
2024/01/26 02:37:58;;;;;;;;;16.00;12.33;;;;;12.56;90.41;102315.03;4994465;28;46186;-40
2024/01/26 02:40:23;;;;;;;;;15.33;12.33;;;;;12.55;90.65;102299.94;4994689;28;45372;-40
2024/01/26 02:42:49;;;;;;;;;18.00;12.00;;;;;12.58;90.37;102307.72;4994769;28;45482;-40
2024/01/26 02:45:14;;;;;;;;;14.00;13.00;;;;;12.57;90.42;102316.72;4994780;28;45417;-40
2024/01/26 02:47:40;;;;;;;;;10.67;8.00;;;;;12.58;90.10;102313.06;4994766;28;45459;-40
2024/01/26 02:50:06;;;;;;;;;11.67;11.67;;;;;12.55;90.35;102303.47;4994449;28;45615;-39
2024/01/26 02:52:32;;;;;;;;;14.33;10.33;;;;;12.58;90.07;102311.25;4994624;28;45418;-38
2024/01/26 02:54:57;;;;;;;;;14.33;9.67;;;;;12.58;89.75;102308.56;4994874;28;45297;-40
2024/01/26 02:57:22;;;;;;;;;14.00;9.33;;;;;12.58;89.84;102297.03;4994454;28;46093;-40
2024/01/26 02:59:48;;;;;;;;;11.67;11.67;;;;;12.56;90.10;102293.66;4994287;28;45386;-39
2024/01/26 03:02:13;;;;;;;;;15.00;11.00;;;;;12.57;90.02;102298.03;5010498;28;45311;-40
2024/01/26 03:04:39;;;;;;;;;9.33;9.00;;;;;12.57;90.06;102298.03;4994707;28;45285;-39
2024/01/26 03:07:04;;;;;;;;;12.00;11.00;;;;;12.56;89.49;102297.19;4994280;28;46011;-39
2024/01/26 03:09:29;;;;;;;;;14.67;8.33;;;;;12.53;89.29;102285.91;4994017;28;45448;-40
2024/01/26 03:11:54;;;;;;;;;12.33;8.00;;;;;12.52;89.96;102292.22;4994428;28;45357;-39
2024/01/26 03:14:20;;;;;;;;;16.67;12.33;;;;;12.49;89.68;102285.28;4994335;28;45833;-40
2024/01/26 03:16:45;;;;;;;;;15.67;13.00;;;;;12.52;89.75;102293.06;4994339;28;45455;-39
2024/01/26 03:19:11;;;;;;;;;14.00;13.00;;;;;12.51;89.76;102291.34;4994382;28;45247;-40
2024/01/26 03:21:45;;;;;;;;;19.00;12.33;;;;;12.48;90.23;102286.25;4994119;28;45380;-40
2024/01/26 03:24:11;;;;;;;;;14.67;9.67;;;;;12.44;89.82;102285.66;4994705;28;45594;-40
2024/01/26 03:26:37;;;;;;;;;11.33;10.00;;;;;12.50;90.21;102289.63;4994010;28;45330;-39
2024/01/26 03:29:03;;;;;;;;;11.67;8.67;;;;;12.47;89.97;102282.75;4993687;28;45391;-39
2024/01/26 03:31:29;;;;;;;;;15.33;11.00;;;;;12.27;90.01;102243.44;4992994;28;45376;-40
2024/01/26 03:33:55;;;;;;;;;18.00;14.00;;;;;12.44;90.08;102269.63;4994180;28;45500;-40
2024/01/26 03:36:21;;;;;;;;;12.00;9.67;;;;;12.53;89.28;102284.06;4992479;28;45418;-39
2024/01/26 03:38:46;;;;;;;;;11.33;10.00;;;;;12.53;89.11;102278.72;4993844;28;45429;-40
2024/01/26 03:41:12;;;;;;;;;10.33;10.00;;;;;12.49;89.58;102266.59;4994243;28;45391;-40
2024/01/26 03:43:37;;;;;;;;;12.00;11.33;;;;;12.57;89.04;102296.19;4994312;28;45481;-40
2024/01/26 03:46:03;;;;;;;;;13.33;11.33;;;;;12.48;89.14;102267.56;4993696;28;46260;-40
2024/01/26 03:48:28;;;;;;;;;11.00;9.00;;;;;12.58;88.52;102278.34;4993835;28;45299;-40
2024/01/26 03:50:54;;;;;;;;;16.33;10.33;;;;;12.57;88.98;102268.66;4993647;28;45438;-40
2024/01/26 03:53:19;;;;;;;;;14.00;9.00;;;;;12.58;88.71;102278.34;4994084;28;45354;-40
2024/01/26 03:55:44;;;;;;;;;14.33;10.00;;;;;12.61;89.02;102283.47;4993824;28;46029;-38
2024/01/26 03:58:10;;;;;;;;;9.67;9.67;;;;;12.63;88.31;102273.50;4993965;28;45264;-40
2024/01/26 04:00:35;;;;;;;;;11.33;9.67;;;;;12.62;87.91;102274.47;4993810;28;45656;-40
2024/01/26 04:03:01;;;;;;;;;16.33;10.67;;;;;12.63;88.07;102281.50;4994023;28;45375;-40
2024/01/26 04:05:26;;;;;;;;;14.00;10.67;;;;;12.64;87.81;102288.53;4993641;28;46077;-40
2024/01/26 04:07:51;;;;;;;;;16.00;11.00;;;;;12.65;87.93;102284.91;4993585;28;45296;-41
2024/01/26 04:10:17;;;;;;;;;11.33;6.67;;;;;12.66;87.82;102284.78;4993744;28;45370;-39
2024/01/26 04:12:42;;;;;;;;;17.33;12.67;;;;;12.67;87.82;102281.13;4993835;28;45339;-39
2024/01/26 04:15:08;;;;;;;;;11.00;9.00;;;;;12.58;87.91;102263.19;4993492;28;47071;-40
2024/01/26 04:17:33;;;;;;;;;13.00;11.00;;;;;12.68;87.55;102274.84;4993733;28;45233;-40
2024/01/26 04:19:58;;;;;;;;;15.00;13.00;;;;;12.65;88.06;102277.75;4993485;28;45412;-40
2024/01/26 04:22:24;;;;;;;;;12.00;9.00;;;;;12.62;87.90;102290.50;4995101;28;45367;-39
2024/01/26 04:24:49;;;;;;;;;12.67;11.67;;;;;12.58;88.25;102275.69;4993349;28;46711;-39
2024/01/26 04:27:14;;;;;;;;;8.33;8.33;;;;;12.64;87.86;102288.53;4993257;28;45395;-40
2024/01/26 04:29:40;;;;;;;;;8.67;8.33;;;;;12.67;87.89;102291.81;4992360;28;45244;-40
2024/01/26 04:32:05;;;;;;;;;12.00;10.00;;;;;12.60;87.77;102279.94;4993602;28;45573;-40
2024/01/26 04:34:31;;;;;;;;;8.33;7.67;;;;;12.66;88.36;102291.94;4993147;28;47192;-40
2024/01/26 04:36:56;;;;;;;;;11.33;9.33;;;;;12.67;87.69;102286.47;4993395;28;45380;-40
2024/01/26 04:39:21;;;;;;;;;11.33;9.00;;;;;12.66;87.67;102286.59;4993334;28;45497;-38
2024/01/26 04:41:46;;;;;;;;;13.67;11.00;;;;;12.58;87.76;102278.34;4996433;28;45523;-40
2024/01/26 04:44:12;;;;;;;;;16.67;9.00;;;;;12.59;87.75;102272.88;4996086;28;48433;-40
2024/01/26 04:46:37;;;;;;;;;11.00;9.33;;;;;12.61;87.66;102283.47;4995885;28;45355;-39
2024/01/26 04:49:03;;;;;;;;;9.00;9.00;;;;;12.39;87.63;102233.63;4995964;28;45300;-38
2024/01/26 04:51:28;;;;;;;;;16.00;13.33;;;;;12.59;88.06;102280.91;4996237;28;45440;-38
2024/01/26 04:53:54;;;;;;;;;11.33;11.00;;;;;12.55;88.14;102276.78;4995836;28;47544;-44
2024/01/26 04:56:21;;;;;;;;;12.00;8.67;;;;;12.50;87.78;102257.59;4995850;28;45278;-39
2024/01/26 04:58:47;;;;;;;;;12.00;11.67;;;;;12.53;88.23;102270.72;4996065;28;45280;-38
2024/01/26 05:01:12;;;;;;;;;16.00;10.00;;;;;12.54;88.20;102267.06;4995777;28;45398;-38
2024/01/26 05:03:37;;;;;;;;;12.00;11.00;;;;;12.55;88.33;102279.44;4995550;28;45592;-39
2024/01/26 05:06:04;;;;;;;;;5.33;5.33;;;;;12.47;88.24;102252.50;4995815;28;45381;-39
2024/01/26 05:08:29;;;;;;;;;12.67;9.67;;;;;12.55;88.26;102271.44;4995710;28;45457;-40
2024/01/26 05:10:54;;;;;;;;;8.33;8.00;;;;;12.55;88.27;102267.91;4995699;28;45448;-40
2024/01/26 05:13:20;;;;;;;;;9.00;9.00;;;;;12.57;88.85;102258.84;4995662;28;47181;-40
2024/01/26 05:15:45;;;;;;;;;13.67;9.67;;;;;12.58;87.94;102268.53;4995507;28;45476;-39
2024/01/26 05:18:10;;;;;;;;;9.33;8.33;;;;;12.56;88.13;102277.66;4995975;28;45620;-39
2024/01/26 05:20:36;;;;;;;;;11.00;9.33;;;;;12.51;88.63;102272.66;4995717;28;45318;-40
2024/01/26 05:23:01;;;;;;;;;14.33;11.67;;;;;12.61;88.13;102273.63;4995376;28;46364;-39
2024/01/26 05:25:26;;;;;;;;;12.33;9.33;;;;;12.62;88.46;102264.63;4995509;28;45421;-39
2024/01/26 05:27:52;;;;;;;;;14.67;10.33;;;;;12.58;87.80;102259.66;4995438;28;45389;-40
2024/01/26 05:30:17;;;;;;;;;13.00;11.33;;;;;12.59;88.38;102248.84;4995668;28;45400;-39
2024/01/26 05:32:43;;;;;;;;;8.67;8.33;;;;;12.59;88.25;102250.69;4995198;28;45362;-39
2024/01/26 05:35:09;;;;;;;;;10.00;7.67;;;;;12.63;87.87;102249.47;4995374;28;45247;-37
2024/01/26 05:37:35;;;;;;;;;11.00;8.00;;;;;12.59;88.09;102235.50;5010641;28;45368;-37
2024/01/26 05:40:04;;;;;;;;;5.67;3.33;;;;;12.63;88.00;102250.31;4995547;28;45324;-39
2024/01/26 05:42:30;;;;;;;;;9.67;9.67;;;;;12.62;88.27;102239.78;5010277;28;47313;-39
2024/01/26 05:44:55;;;;;;;;;13.67;10.67;;;;;12.64;88.46;102249.38;4995039;28;49139;-38
2024/01/26 05:47:20;;;;;;;;;9.67;8.00;;;;;12.68;87.96;102245.47;4995121;28;45259;-39
2024/01/26 05:49:46;;;;;;;;;7.67;5.67;;;;;12.62;87.45;102245.94;4995427;28;45358;-44
2024/01/26 05:52:11;;;;;;;;;9.33;8.33;;;;;12.67;88.04;102249.09;4994725;28;45411;-38
2024/01/26 05:54:36;;;;;;;;;13.33;11.67;;;;;12.63;87.81;102255.66;4995229;28;45429;-39
2024/01/26 05:57:02;;;;;;;;;12.67;9.33;;;;;12.68;88.56;102272.19;4996904;28;45318;-40
2024/01/26 05:59:27;;;;;;;;;13.00;11.67;;;;;12.66;88.12;102260.75;4995380;28;45493;-40
2024/01/26 06:01:52;;;;;;;;;11.00;8.00;;;;;12.64;88.51;102254.72;4995023;28;46204;-38
2024/01/26 06:04:18;;;;;;;;;9.00;9.00;;;;;12.69;88.31;102265.00;4995218;28;45424;-38
2024/01/26 06:06:43;;;;;;;;;16.33;9.00;;;;;12.73;87.94;102259.28;4995585;28;45306;-38
2024/01/26 06:09:09;;;;;;;;;9.67;8.67;;;;;12.68;88.00;102264.16;4995791;28;45452;-37
2024/01/26 06:11:34;;;;;;;;;12.00;10.00;;;;;12.69;88.23;102273.88;4995070;28;46047;-39
2024/01/26 06:14:00;;;;;;;;;12.67;9.00;;;;;12.69;88.16;102263.19;4995002;28;45278;-38
2024/01/26 06:16:26;;;;;;;;;13.67;9.67;;;;;12.66;87.97;102271.44;4995047;28;45382;-39
2024/01/26 06:18:52;;;;;;;;;12.00;9.67;;;;;12.72;88.51;102288.78;4995526;28;45217;-39
2024/01/26 06:21:17;;;;;;;;;9.00;7.00;;;;;12.74;88.11;102293.03;4995045;28;45433;-39
2024/01/26 06:23:42;;;;;;;;;9.00;8.00;;;;;12.76;88.11;102286.72;4995236;28;45335;-39
2024/01/26 06:26:08;;;;;;;;;10.33;7.67;;;;;12.76;87.77;102284.03;4995367;28;45488;-39
2024/01/26 06:28:33;;;;;;;;;8.00;7.00;;;;;12.76;87.83;102281.38;4995482;28;45305;-38
2024/01/26 06:30:59;;;;;;;;;10.67;7.67;;;;;12.79;87.69;102287.31;4995084;28;45235;-38
2024/01/26 06:33:24;;;;;;;;;6.33;6.33;;;;;12.78;87.73;102288.31;4994935;28;45437;-39
2024/01/26 06:35:49;;;;;;;;;12.33;8.33;;;;;12.78;87.81;102288.31;4994819;28;45460;-39
2024/01/26 06:38:15;;;;;;;;;11.00;8.33;;;;;12.79;87.73;102297.16;4995085;28;45310;-39
2024/01/26 06:40:40;;;;;;;;;10.33;8.33;;;;;12.79;88.12;102298.00;4994349;28;46458;-39
2024/01/26 06:43:07;;;;;;;;;12.67;10.00;;;;;12.80;87.69;102289.00;4994548;28;45346;-38
2024/01/26 06:45:33;;;;;;;;;13.00;11.00;;;;;12.78;87.88;102296.31;4994461;28;45309;-39
2024/01/26 06:47:58;;;;;;;;;9.33;8.00;;;;;12.82;87.46;102299.59;4994566;28;45453;-39
2024/01/26 06:50:24;;;;;;;;;12.67;9.67;;;;;12.84;87.65;102309.16;4994034;28;46254;-39
2024/01/26 06:52:49;;;;;;;;;11.33;8.00;;;;;12.84;88.17;102298.47;4994031;28;45355;-37
2024/01/26 06:55:15;;;;;;;;;12.33;8.33;;;;;12.86;87.22;102303.72;4994484;28;46522;-39
2024/01/26 06:57:40;;;;;;;;;11.33;9.33;;;;;12.84;87.73;102298.47;4994460;28;45492;-39
2024/01/26 07:00:07;;;;;;;;;12.67;7.33;;;;;12.85;87.72;102310.88;4994262;28;45942;-39
2024/01/26 07:02:33;;;;;;;;;11.00;9.00;;;;;12.87;87.70;102311.59;4993211;28;45449;-39
2024/01/26 07:04:59;;;;;;;;;14.00;9.67;;;;;12.87;87.59;102324.94;4994357;28;45321;-43
2024/01/26 07:07:24;;;;;;;;;10.67;6.33;;;;;12.87;87.75;102319.59;4993263;28;45581;-39
2024/01/26 07:09:50;;;;;;;;;12.00;9.67;;;;;12.89;87.67;102311.44;4994097;28;46552;-39
2024/01/26 07:12:15;;;;;;;;;8.33;6.33;;;;;12.91;87.52;102304.19;4994266;28;45390;-39
2024/01/26 07:14:41;;;;;;;;;11.33;9.00;;;;;12.91;87.35;102318.38;4994503;28;45482;-39
2024/01/26 07:17:06;;;;;;;;;8.33;7.67;;;;;12.93;87.66;102323.59;4994232;28;45275;-38
2024/01/26 07:19:31;;;;;;;;;9.33;7.33;;;;;12.94;87.31;102322.63;4993940;28;46593;-39
2024/01/26 07:21:57;;;;;;;;;14.33;8.00;;;;;12.95;88.05;102319.84;4994110;28;45529;-39
2024/01/26 07:24:22;;;;;;;;;10.00;8.00;;;;;12.93;88.33;102320.91;4994331;28;45373;-40
2024/01/26 07:26:48;;;;;;;;;8.00;8.00;;;;;12.88;89.30;102320.44;4994823;28;45365;-40
2024/01/26 07:29:13;;;;;;;;;11.33;7.00;;;;;12.88;89.70;102328.47;4994289;28;46157;-38
2024/01/26 07:31:41;;;;;;;;;6.67;4.67;;;;;12.88;90.13;102333.81;4994138;28;45374;-40
2024/01/26 07:34:06;;;;;;;;;10.67;6.33;;;;;12.83;89.55;102327.97;4994084;28;45247;-39
2024/01/26 07:36:36;;;;;;;;;7.33;7.00;;;;;12.76;90.48;102329.44;4995733;28;45285;-40
2024/01/26 07:39:02;;;;;;;;;13.00;9.00;;;;;12.82;91.49;102339.66;4994184;28;45388;-40
2024/01/26 07:41:28;;;;;;;;;12.00;7.33;;;;;12.84;91.51;102362.56;4993922;28;45533;-39
2024/01/26 07:43:53;;;;;;;;;8.33;5.33;;;;;12.81;91.80;102346.81;4994179;28;45395;-40
2024/01/26 07:46:18;;;;;;;;;7.67;7.67;;;;;12.81;91.70;102352.16;4994431;28;45441;-40
2024/01/26 07:48:44;;;;;;;;;11.00;8.67;;;;;12.78;92.42;102347.03;4993782;28;46524;-42
2024/01/26 07:51:09;;;;;;;;;14.00;10.00;;;;;12.79;92.62;102350.56;4993942;28;46557;-40
2024/01/26 07:53:34;;;;;;;;;9.67;8.00;;;;;12.76;93.31;102348.13;4993953;28;45518;-39
2024/01/26 07:55:59;;;;;;;;;7.33;6.33;;;;;12.74;93.30;102354.44;4994355;28;45260;-41
2024/01/26 07:58:25;;;;;;;;;7.67;7.00;;;;;12.74;93.44;102364.28;4993845;28;46719;-38
2024/01/26 08:00:50;;;;;;;;;12.33;7.00;;;;;12.74;94.27;102359.78;4993538;28;45448;-40
2024/01/26 08:03:16;;;;;;;;;8.67;7.33;;;;;12.76;94.12;102366.81;4993831;28;45312;-40
2024/01/26 08:05:41;;;;;;;;;7.00;7.00;;;;;12.74;93.24;102365.13;4994274;28;45223;-38
2024/01/26 08:08:07;;;;;;;;;11.33;8.67;;;;;12.73;93.29;102365.25;4993698;28;45475;-39
2024/01/26 08:10:32;;;;;;;;;7.67;7.67;;;;;12.74;94.68;102377.63;4993000;28;45216;-39
2024/01/26 08:12:58;;;;;;;;;6.67;4.00;;;;;12.71;94.38;102368.03;4992794;28;45444;-37
2024/01/26 08:15:23;;;;;;;;;8.00;7.33;;;;;12.75;94.33;102373.97;4991852;28;45317;-39
2024/01/26 08:17:48;;;;;;;;;9.00;7.00;;;;;12.76;94.05;102381.03;4989768;28;46227;-39
2024/01/26 08:20:14;;;;;;;;;4.67;4.67;;;;;12.74;94.86;102389.16;4991498;28;45339;-39
2024/01/26 08:22:39;;;;;;;;;5.33;5.33;;;;;12.73;94.27;102384.81;4991006;28;45479;-40
2024/01/26 08:25:06;;;;;;;;;9.67;8.67;;;;;12.78;94.91;102391.59;4990752;28;45463;-39
2024/01/26 08:27:31;;;;;;;;;11.00;8.00;;;;;12.78;94.56;102392.44;4990478;28;45495;-39
2024/01/26 08:29:57;;;;;;;;;6.00;4.00;;;;;12.77;93.85;102390.75;4990242;28;45287;-39
2024/01/26 08:32:22;;;;;;;;;8.00;4.00;;;;;12.80;94.51;102411.00;4990698;28;45452;-39
2024/01/26 08:34:48;;;;;;;;;8.00;6.00;;;;;12.82;94.31;102407.25;4990785;28;45651;-38
2024/01/26 08:37:13;;;;;;;;;10.00;9.00;;;;;12.87;94.64;102414.91;4990486;28;46142;-39
2024/01/26 08:39:38;;;;;;;;;5.00;5.00;;;;;12.86;95.05;102416.72;4990684;28;45490;-38
2024/01/26 08:42:04;;;;;;;;;4.67;4.00;;;;;12.85;95.06;102416.84;4990506;28;45608;-38
2024/01/26 08:44:32;;;;;;;;;7.00;4.00;;;;;12.88;95.06;102409.44;4990410;28;45720;-37
2024/01/26 08:46:58;;;;;;;;;7.00;3.00;;;;;12.92;95.08;102424.25;4990176;28;46685;-38
2024/01/26 08:49:23;;;;;;;;;2.67;2.67;;;;;12.90;94.97;102414.66;4989861;28;46390;-39
2024/01/26 08:51:51;;;;;;;;;2.67;2.00;;;;;12.98;94.85;102414.91;4990648;28;45386;-37
2024/01/26 08:54:16;;;;;;;;;5.00;3.00;;;;;12.97;94.63;102423.88;4988984;28;45386;-38
2024/01/26 08:56:42;;;;;;;;;2.33;2.33;;;;;12.90;94.73;102415.53;4990199;28;45974;-39
2024/01/26 08:59:11;;;;;;;;;3.00;3.00;;;;;13.02;95.20;102435.06;4990150;28;45500;-39
2024/01/26 09:01:38;;;;;;;;;3.33;3.00;;;;;13.04;94.80;102443.81;4990286;28;45528;-39
2024/01/26 09:04:08;;;;;;;;;7.33;2.33;;;;;13.06;94.83;102438.31;4990175;28;45641;-39
2024/01/26 09:06:34;;;;;;;;;9.67;5.33;;;;;13.09;95.29;102440.75;4989815;28;45605;-39
2024/01/26 09:08:59;;;;;;;;;4.00;3.33;;;;;13.11;95.46;102445.03;4989933;28;45457;-39
2024/01/26 09:11:24;;;;;;;;;3.00;2.33;;;;;13.13;95.68;102448.41;4990366;28;45670;-39
2024/01/26 09:13:50;;;;;;;;;7.00;2.67;;;;;13.15;95.84;102443.81;4990073;28;45314;-39
2024/01/26 09:16:15;;;;;;;;;4.00;2.67;;;;;13.21;95.65;102439.78;4989660;28;45571;-40
2024/01/26 09:18:40;;;;;;;;;4.67;2.33;;;;;13.21;95.20;102439.78;4989916;28;45370;-38
2024/01/26 09:21:10;;;;;;;;;2.00;2.00;;;;;13.28;95.40;102443.72;4989883;28;45409;-38
2024/01/26 09:23:36;;;;;;;;;2.00;2.00;;;;;13.33;95.19;102443.34;4990241;28;45442;-39
2024/01/26 09:26:01;;;;;;;;;4.33;2.00;;;;;13.35;95.48;102452.06;4990692;28;47076;-39
2024/01/26 09:28:27;;;;;;;;;4.00;3.00;;;;;13.39;95.12;102443.69;4993301;28;46238;-39
2024/01/26 09:30:52;;;;;;;;;4.33;3.00;;;;;13.40;95.11;102455.22;4992070;28;45479;-39
2024/01/26 09:33:17;;;;;;;;;5.33;2.00;;;;;13.39;94.45;102454.38;4993255;28;45436;-38
2024/01/26 09:35:43;;;;;;;;;2.67;2.67;;;;;13.38;94.82;102467.88;4992919;28;45967;-39
2024/01/26 09:38:08;;;;;;;;;4.33;3.00;;;;;13.36;94.72;102477.84;4993224;28;45371;-39
2024/01/26 09:40:33;;;;;;;;;5.00;4.00;;;;;13.39;94.23;102485.59;4993430;28;45450;-39
2024/01/26 09:42:59;;;;;;;;;3.00;3.00;;;;;13.39;94.61;102490.94;4993904;28;45480;-39
2024/01/26 09:45:25;;;;;;;;;3.00;3.00;;;;;13.35;94.81;102479.66;4989710;28;46066;-39
2024/01/26 09:47:54;;;;;;;;;4.33;2.33;;;;;13.41;94.23;102497.91;4991344;28;45304;-39
2024/01/26 09:50:23;;;;;;;;;2.00;2.00;;;;;13.47;94.33;102499.22;4989982;28;45432;-40
2024/01/26 09:52:53;;;;;;;;;3.00;3.00;;;;;13.45;95.07;102509.19;4991946;28;45564;-39
2024/01/26 09:55:19;;;;;;;;;2.00;2.00;;;;;13.46;94.81;102510.88;4991958;28;46530;-39
2024/01/26 09:57:45;;;;;;;;;3.67;2.33;;;;;13.45;95.30;102520.72;4992770;28;45417;-38
2024/01/26 10:00:11;;;;;;;;;3.00;2.33;;;;;13.47;95.28;102507.22;5077789;27;45438;-38
2024/01/26 10:02:37;;;;;;;;;4.00;2.00;;;;;13.52;95.42;102529.09;5007905;28;45485;-39
2024/01/26 10:05:03;;;;;;;;;3.00;1.33;;;;;13.44;95.34;102535.09;4992075;28;45848;-39
2024/01/26 10:07:28;;;;;;;;;2.00;2.00;;;;;13.49;95.85;102550.75;4987949;28;45466;-39
2024/01/26 10:09:53;;;;;;;;;0.00;0.00;;;;;13.44;95.07;102558.25;4993209;28;45414;-39
2024/01/26 10:12:19;;;;;;;;;1.33;1.33;;;;;13.42;93.92;102569.09;4993266;28;45472;-39
2024/01/26 10:14:44;;;;;;;;;1.00;1.00;;;;;13.36;91.38;102555.38;4993016;28;45475;-40
2024/01/26 10:17:18;;;;;;;;;1.00;1.00;;;;;13.42;88.71;102568.25;4991591;28;45451;-41
2024/01/26 10:19:43;;;;;;;;;3.67;2.67;;;;;13.45;87.31;102571.53;4993205;28;45324;-39
2024/01/26 10:22:09;;;;;;;;;0.33;0.33;;;;;13.44;86.02;102585.88;4992346;28;46005;-40
2024/01/26 10:24:34;;;;;;;;;1.33;1.00;;;;;13.51;84.21;102602.28;4992051;28;46224;-38
2024/01/26 10:27:00;;;;;;;;;1.00;1.00;;;;;13.59;81.50;102601.66;4993069;28;45495;-40
2024/01/26 10:29:25;;;;;;;;;0.00;0.00;;;;;13.62;80.31;102594.25;4992670;28;45766;-40
2024/01/26 10:31:51;;;;;;;;;0.00;0.00;;;;;13.70;79.02;102599.84;4992569;28;45433;-40
2024/01/26 10:34:18;;;;;;;;;0.00;0.00;;;;;13.78;77.92;102599.25;4991811;28;46072;-40
2024/01/26 10:36:46;;;;;;;;;2.00;0.00;;;;;13.72;76.21;102605.91;4992059;28;45387;-40
2024/01/26 10:39:28;;;;;;;;;1.00;1.00;;;;;13.69;75.91;102610.66;4991887;28;45411;-40
2024/01/26 10:41:56;;;;;;;;;0.00;0.00;;;;;13.76;74.32;102632.44;4991742;28;45462;-40
2024/01/26 10:44:22;;;;;;;;;0.00;0.00;;;;;13.74;74.56;102629.88;4992055;28;45423;-39
2024/01/26 10:46:48;;;;;;;;;0.33;0.00;;;;;13.72;73.17;102634.50;4992770;28;45597;-40
2024/01/26 10:49:15;;;;;;;;;1.33;0.00;;;;;13.82;72.65;102632.81;4991758;28;45575;-39
2024/01/26 10:51:41;;;;;;;;;0.00;0.00;;;;;13.88;72.13;102626.97;4992626;28;45436;-41
2024/01/26 10:54:11;;;;;;;;;2.00;2.00;;;;;13.95;72.29;102633.53;4992434;28;46399;-40
2024/01/26 10:56:38;;;;;;;;;0.00;0.00;;;;;13.98;71.65;102643.97;4992617;28;45452;-40
2024/01/26 10:59:05;;;;;;;;;2.33;1.33;;;;;14.11;71.14;102643.84;4992243;28;45492;-38
2024/01/26 11:01:31;;;;;;;;;1.00;1.00;;;;;14.26;70.70;102656.97;4992448;28;45452;-39
2024/01/26 11:03:58;;;;;;;;;0.00;0.00;;;;;14.48;70.14;102662.28;4991991;28;46145;-40
2024/01/26 11:06:26;;;;;;;;;6.00;1.00;;;;;14.67;68.84;102656.31;4991626;28;45501;-39
2024/01/26 11:08:57;;;;;;;;;1.00;1.00;;;;;14.87;69.28;102662.66;4992252;28;45335;-40
2024/01/26 11:11:23;;;;;;;;;1.00;1.00;;;;;15.24;67.78;102665.78;5007800;28;45842;-39